Time;durP1;ratioP1;P1;durP2;ratioP2;P2;SDS_P1;SDS_P2;PMS_P1;PMS_P2;Temp;Humidity;BMP_temperature;BMP_pressure;BME280_temperature;BME280_humidity;BME280_pressure;Samples;Min_cycle;Max_cycle;Signal;HPM_P1;HPM_P2
2023/06/19 00:02:16;;;;;;;;;;;;;;;12.69;77.05;100101.19;130098;1294;22605;-85
2023/06/19 00:05:16;;;;;;;;;;;;;;;12.66;77.42;100099.41;130088;1289;22665;-82
2023/06/19 00:08:16;;;;;;;;;;;;;;;12.65;77.38;100101.91;130180;1295;22643;-83
2023/06/19 00:11:17;;;;;;;;;;;;;;;12.64;76.85;100099.48;130082;1291;23474;-82
2023/06/19 00:14:18;;;;;;;;;;;;;;;12.61;76.67;100098.18;130311;1291;22558;-82
2023/06/19 00:17:19;;;;;;;;;;;;;;;12.59;76.62;100096.95;130269;1293;22787;-81
2023/06/19 00:20:19;;;;;;;;;;;;;;;12.61;76.81;100095.48;130180;1293;25625;-83
2023/06/19 00:23:19;;;;;;;;;;;;;;;12.62;76.54;100099.27;130206;1289;22537;-82
2023/06/19 00:26:22;;;;;;;;;;;;;;;12.62;76.20;100097.75;130134;1294;22803;-82
2023/06/19 00:29:27;;;;;;;;;;;;;;;12.62;76.08;100097.14;130147;1290;22794;-82
2023/06/19 00:32:28;;;;;;;;;;;;;;;12.57;76.07;100098.21;130123;1289;24402;-80
2023/06/19 00:35:30;;;;;;;;;;;;;;;12.53;76.06;100104.24;130214;1297;24483;-83
2023/06/19 00:38:31;;;;;;;;;;;;;;;12.51;76.65;100104.26;130175;1292;22537;-81
2023/06/19 00:41:32;;;;;;;;;;;;;;;12.48;77.21;100103.52;130138;1292;23334;-81
2023/06/19 00:44:32;;;;;;;;;;;;;;;12.45;77.19;100105.34;130160;1298;25466;-81
2023/06/19 00:47:33;;;;;;;;;;;;;;;12.38;76.91;100103.50;130210;1294;22529;-84
2023/06/19 00:50:34;;;;;;;;;;;;;;;12.31;77.43;100099.83;130323;1294;22645;-81
2023/06/19 00:53:35;;;;;;;;;;;;;;;12.29;77.44;100098.16;130003;1287;22544;-82
2023/06/19 00:56:37;;;;;;;;;;;;;;;12.23;77.62;100094.80;130226;1289;24285;-82
2023/06/19 00:59:38;;;;;;;;;;;;;;;12.16;77.87;100091.73;130194;1295;22535;-81
2023/06/19 01:02:38;;;;;;;;;;;;;;;12.09;78.23;100090.48;130059;1297;25256;-82
2023/06/19 01:05:39;;;;;;;;;;;;;;;12.02;78.61;100087.05;130037;1292;24384;-83
2023/06/19 01:08:50;;;;;;;;;;;;;;;12.02;78.62;100085.65;130254;1289;25375;-81
2023/06/19 01:11:55;;;;;;;;;;;;;;;11.99;78.50;100088.66;130139;1297;22552;-82
2023/06/19 01:14:59;;;;;;;;;;;;;;;11.95;78.47;100088.61;130024;1298;22580;-81
2023/06/19 01:18:00;;;;;;;;;;;;;;;11.95;78.16;100089.69;130024;1291;25340;-82
2023/06/19 01:21:11;;;;;;;;;;;;;;;11.96;78.00;100087.16;130123;1291;22653;-80
2023/06/19 01:24:11;;;;;;;;;;;;;;;11.97;78.05;100089.14;130189;1292;25386;-82
2023/06/19 01:27:13;;;;;;;;;;;;;;;11.94;78.16;100085.06;130122;1290;22817;-83
2023/06/19 01:30:14;;;;;;;;;;;;;;;11.82;78.36;100084.83;130014;1297;22772;-81
2023/06/19 01:33:17;;;;;;;;;;;;;;;11.75;78.77;100076.92;130265;1298;22530;-84
2023/06/19 01:36:18;;;;;;;;;;;;;;;11.73;78.83;100076.23;130200;1290;22540;-81
2023/06/19 01:39:19;;;;;;;;;;;;;;;11.71;78.60;100074.17;129960;1297;22576;-82
2023/06/19 01:42:20;;;;;;;;;;;;;;;11.65;78.48;100077.51;130169;1288;22530;-84
2023/06/19 01:45:21;;;;;;;;;;;;;;;11.64;78.37;100082.92;130308;1293;22563;-83
2023/06/19 01:48:21;;;;;;;;;;;;;;;11.63;78.30;100084.05;130106;1297;23673;-84
2023/06/19 01:51:22;;;;;;;;;;;;;;;11.61;78.04;100085.33;130282;1294;22649;-80
2023/06/19 01:54:22;;;;;;;;;;;;;;;11.56;78.37;100088.06;130229;1291;22531;-83
2023/06/19 01:57:22;;;;;;;;;;;;;;;11.55;78.26;100092.44;130141;1298;26079;-82
2023/06/19 02:00:23;;;;;;;;;;;;;;;11.56;78.26;100090.00;130015;1298;23301;-81
2023/06/19 02:03:23;;;;;;;;;;;;;;;11.53;78.15;100094.44;130150;1295;24719;-82
2023/06/19 02:06:24;;;;;;;;;;;;;;;11.52;78.46;100097.20;130206;1290;22530;-80
2023/06/19 02:09:24;;;;;;;;;;;;;;;11.48;78.35;100096.74;130269;1294;24268;-83
2023/06/19 02:12:25;;;;;;;;;;;;;;;11.50;78.70;100101.36;130305;1297;22762;-84
2023/06/19 02:15:25;;;;;;;;;;;;;;;11.48;79.25;100099.61;130374;1297;22632;-81
2023/06/19 02:18:25;;;;;;;;;;;;;;;11.46;79.31;100097.41;130073;1295;23186;-83
2023/06/19 02:21:26;;;;;;;;;;;;;;;11.35;79.61;100096.09;130037;1283;22585;-80
2023/06/19 02:24:26;;;;;;;;;;;;;;;11.23;79.64;100097.95;130065;1298;24256;-82
2023/06/19 02:27:27;;;;;;;;;;;;;;;11.12;79.60;100100.48;130087;1291;24223;-81
2023/06/19 02:30:27;;;;;;;;;;;;;;;11.02;80.19;100102.26;130060;1299;26671;-83
2023/06/19 02:33:28;;;;;;;;;;;;;;;10.93;80.32;100102.38;130444;1298;22606;-81
2023/06/19 02:36:30;;;;;;;;;;;;;;;10.88;80.72;100099.61;130352;1295;22749;-82
2023/06/19 02:39:30;;;;;;;;;;;;;;;10.88;80.96;100098.70;130083;1290;22480;-83
2023/06/19 02:42:31;;;;;;;;;;;;;;;10.90;81.09;100097.82;130245;1291;23022;-81
2023/06/19 02:45:31;;;;;;;;;;;;;;;10.92;81.41;100100.92;130050;1292;24292;-83
2023/06/19 02:48:31;;;;;;;;;;;;;;;10.94;81.60;100101.17;130350;1289;25415;-82
2023/06/19 02:51:33;;;;;;;;;;;;;;;10.97;81.57;100105.96;130421;1288;22553;-82
2023/06/19 02:54:33;;;;;;;;;;;;;;;11.01;81.84;100103.67;130183;1289;24225;-82
2023/06/19 02:57:34;;;;;;;;;;;;;;;11.02;82.03;100101.04;130205;1293;25321;-82
2023/06/19 03:00:37;;;;;;;;;;;;;;;11.01;81.95;100100.61;130192;1288;22540;-82
2023/06/19 03:03:38;;;;;;;;;;;;;;;10.97;82.07;100099.13;130098;1296;25316;-82
2023/06/19 03:06:39;;;;;;;;;;;;;;;10.93;82.20;100100.73;130178;1297;22563;-84
2023/06/19 03:09:40;;;;;;;;;;;;;;;10.97;82.42;100103.70;130166;1290;22544;-83
2023/06/19 03:12:41;;;;;;;;;;;;;;;11.06;81.95;100108.39;130062;1297;22539;-83
2023/06/19 03:15:41;;;;;;;;;;;;;;;11.19;82.64;100108.03;130190;1297;22656;-84
2023/06/19 03:18:44;;;;;;;;;;;;;;;11.40;82.85;100107.98;130060;1291;22593;-84
2023/06/19 03:21:45;;;;;;;;;;;;;;;11.60;82.63;100102.88;130156;1288;22536;-84
2023/06/19 03:24:47;;;;;;;;;;;;;;;11.77;82.60;100100.80;130171;1295;22532;-83
2023/06/19 03:27:55;;;;;;;;;;;;;;;11.93;82.59;100097.87;130191;1289;22769;-85
2023/06/19 03:30:56;;;;;;;;;;;;;;;12.07;82.52;100094.52;129974;1291;25345;-80
2023/06/19 03:33:57;;;;;;;;;;;;;;;12.26;82.57;100091.39;130337;1290;22840;-84
2023/06/19 03:36:58;;;;;;;;;;;;;;;12.57;82.60;100090.30;130066;1298;23037;-83
2023/06/19 03:39:59;;;;;;;;;;;;;;;12.88;82.16;100094.42;130094;1292;24349;-83
2023/06/19 03:43:06;;;;;;;;;;;;;;;13.19;81.73;100095.02;130129;1298;22623;-83
2023/06/19 03:46:06;;;;;;;;;;;;;;;13.50;81.47;100096.58;130085;1289;24369;-82
2023/06/19 03:49:09;;;;;;;;;;;;;;;13.81;80.95;100099.20;130036;1292;22549;-85
2023/06/19 03:52:09;;;;;;;;;;;;;;;14.12;80.37;100093.48;130184;1288;25348;-83
2023/06/19 03:55:10;;;;;;;;;;;;;;;14.44;79.96;100086.05;130161;1291;24284;-82
2023/06/19 03:58:10;;;;;;;;;;;;;;;14.78;79.53;100084.29;130109;1289;23245;-82
2023/06/19 04:01:11;;;;;;;;;;;;;;;15.10;78.98;100086.46;130443;1297;22546;-82
2023/06/19 04:04:11;;;;;;;;;;;;;;;15.39;78.68;100084.02;130176;1295;23026;-81
2023/06/19 04:07:13;;;;;;;;;;;;;;;15.80;78.48;100090.44;130027;1295;22583;-83
2023/06/19 04:10:15;;;;;;;;;;;;;;;16.30;78.08;100095.36;130050;1291;22534;-83
2023/06/19 04:13:16;;;;;;;;;;;;;;;16.73;77.54;100093.36;130155;1288;25476;-82
2023/06/19 04:16:16;;;;;;;;;;;;;;;17.12;76.52;100095.79;130174;1292;25303;-82
2023/06/19 04:19:16;;;;;;;;;;;;;;;17.40;75.76;100095.45;130215;1298;24262;-84
2023/06/19 04:22:17;;;;;;;;;;;;;;;17.64;75.26;100093.21;130200;1293;23865;-84
2023/06/19 04:25:18;;;;;;;;;;;;;;;17.98;75.02;100094.89;130232;1295;22537;-85
2023/06/19 04:28:18;;;;;;;;;;;;;;;18.26;74.28;100102.67;130212;1295;23163;-84
2023/06/19 04:31:19;;;;;;;;;;;;;;;18.35;73.71;100107.81;130423;1292;23459;-81
2023/06/19 04:34:20;;;;;;;;;;;;;;;18.36;73.35;100106.27;130398;1288;22527;-81
2023/06/19 04:37:21;;;;;;;;;;;;;;;18.59;73.35;100101.55;130391;1294;22543;-83
2023/06/19 04:40:21;;;;;;;;;;;;;;;18.90;72.97;100099.95;130499;1291;23908;-84
2023/06/19 04:43:24;;;;;;;;;;;;;;;19.13;72.30;100098.83;130522;1294;22568;-85
2023/06/19 04:46:24;;;;;;;;;;;;;;;19.54;72.45;100101.81;130857;1289;22534;-82
2023/06/19 04:49:25;;;;;;;;;;;;;;;20.00;71.92;100104.00;130260;1288;22646;-84
2023/06/19 04:52:26;;;;;;;;;;;;;;;20.41;71.10;100107.31;130374;1288;24975;-83
2023/06/19 04:55:26;;;;;;;;;;;;;;;20.40;70.48;100104.32;130058;1292;25443;-83
2023/06/19 04:58:27;;;;;;;;;;;;;;;20.28;69.99;100104.63;130338;1298;24700;-84
2023/06/19 05:01:28;;;;;;;;;;;;;;;19.88;69.40;100102.38;130757;1289;24261;-83
2023/06/19 05:04:32;;;;;;;;;;;;;;;19.55;69.71;100105.77;130235;1293;22556;-80
2023/06/19 05:07:33;;;;;;;;;;;;;;;19.37;70.09;100109.21;130228;1293;22546;-84
2023/06/19 05:10:33;;;;;;;;;;;;;;;19.31;70.43;100111.20;130942;1291;22590;-83
2023/06/19 05:13:33;;;;;;;;;;;;;;;19.27;70.59;100109.65;130584;1293;22527;-84
2023/06/19 05:16:34;;;;;;;;;;;;;;;19.21;70.36;100117.00;130482;1293;25487;-82
2023/06/19 05:19:35;;;;;;;;;;;;;;;19.10;70.39;100117.82;130759;1292;22542;-83
2023/06/19 05:22:36;;;;;;;;;;;;;;;18.91;70.52;100114.48;130692;1295;22535;-84
2023/06/19 05:25:36;;;;;;;;;;;;;;;18.76;70.88;100109.74;130730;1298;23179;-82
2023/06/19 05:28:37;;;;;;;;;;;;;;;18.72;71.62;100114.96;130684;1289;24276;-83
2023/06/19 05:31:37;;;;;;;;;;;;;;;18.84;72.02;100112.20;130577;1289;24266;-82
2023/06/19 05:34:38;;;;;;;;;;;;;;;18.96;71.90;100116.75;130385;1292;22528;-84
2023/06/19 05:37:39;;;;;;;;;;;;;;;19.15;72.04;100122.08;130454;1298;22581;-84
2023/06/19 05:40:39;;;;;;;;;;;;;;;19.34;71.92;100125.77;130385;1298;22565;-83
2023/06/19 05:43:40;;;;;;;;;;;;;;;19.42;71.55;100123.19;130449;1298;22669;-84
2023/06/19 05:46:40;;;;;;;;;;;;;;;19.40;71.56;100124.98;130276;1297;168159;-81
2023/06/19 05:49:41;;;;;;;;;;;;;;;19.48;71.69;100129.94;130314;1289;22593;-82
2023/06/19 05:52:43;;;;;;;;;;;;;;;19.66;71.76;100129.83;130116;1294;22939;-84
2023/06/19 05:55:43;;;;;;;;;;;;;;;19.82;71.51;100134.69;130085;1297;22537;-83
2023/06/19 05:58:44;;;;;;;;;;;;;;;19.98;71.27;100133.15;130131;1291;22813;-84
2023/06/19 06:01:44;;;;;;;;;;;;;;;20.14;70.83;100136.58;130098;1295;24315;-84
2023/06/19 06:04:45;;;;;;;;;;;;;;;20.26;70.44;100143.70;130366;1289;23269;-83
2023/06/19 06:07:45;;;;;;;;;;;;;;;20.46;70.03;100143.12;130446;1289;25350;-83
2023/06/19 06:10:46;;;;;;;;;;;;;;;20.80;70.13;100144.66;130464;1291;22541;-82
2023/06/19 06:13:47;;;;;;;;;;;;;;;21.21;69.55;100143.79;130208;1291;22531;-82
2023/06/19 06:16:47;;;;;;;;;;;;;;;21.74;69.20;100146.00;130255;1289;24230;-81
2023/06/19 06:19:48;;;;;;;;;;;;;;;22.14;68.17;100145.70;130188;1288;22578;-84
2023/06/19 06:22:48;;;;;;;;;;;;;;;22.63;67.88;100148.56;130114;1289;22745;-81
2023/06/19 06:25:49;;;;;;;;;;;;;;;23.23;66.93;100155.30;130230;1289;24276;-80
2023/06/19 06:28:49;;;;;;;;;;;;;;;23.55;65.35;100156.38;130051;1291;22545;-81
2023/06/19 06:31:52;;;;;;;;;;;;;;;23.88;64.59;100161.04;130077;1289;24103;-81
2023/06/19 06:34:53;;;;;;;;;;;;;;;24.18;63.86;100162.16;130119;1297;22539;-83
2023/06/19 06:37:53;;;;;;;;;;;;;;;24.49;62.99;100163.20;130012;1298;24225;-83
2023/06/19 06:40:54;;;;;;;;;;;;;;;24.85;62.46;100162.52;130034;1288;24240;-81
2023/06/19 06:43:55;;;;;;;;;;;;;;;25.14;61.23;100166.85;130237;1295;22572;-82
2023/06/19 06:46:55;;;;;;;;;;;;;;;25.35;59.73;100165.04;130217;1297;22527;-82
2023/06/19 06:49:56;;;;;;;;;;;;;;;25.65;59.58;100167.08;130073;1298;22549;-82
2023/06/19 06:52:56;;;;;;;;;;;;;;;26.09;58.94;100165.78;130318;1297;22544;-83
2023/06/19 06:56:00;;;;;;;;;;;;;;;26.67;58.06;100165.77;130261;1292;25246;-84
2023/06/19 06:59:00;;;;;;;;;;;;;;;27.06;57.08;100167.81;130129;1298;22607;-82
2023/06/19 07:02:00;;;;;;;;;;;;;;;27.27;55.59;100166.05;130253;1298;22557;-83
2023/06/19 07:05:01;;;;;;;;;;;;;;;27.09;54.30;100166.02;130131;1294;24724;-82
2023/06/19 07:08:02;;;;;;;;;;;;;;;26.92;54.58;100165.77;130244;1291;24400;-82
2023/06/19 07:11:02;;;;;;;;;;;;;;;26.85;54.15;100166.09;130200;1298;22536;-82
2023/06/19 07:14:03;;;;;;;;;;;;;;;26.59;53.46;100165.06;130132;1289;22543;-81
2023/06/19 07:17:06;;;;;;;;;;;;;;;26.43;53.66;100166.50;130221;1292;22541;-83
2023/06/19 07:20:07;;;;;;;;;;;;;;;26.35;53.39;100174.97;130421;1289;22532;-81
2023/06/19 07:23:09;;;;;;;;;;;;;;;26.24;53.48;100168.98;130331;1289;22714;-83
2023/06/19 07:26:09;;;;;;;;;;;;;;;26.21;53.17;100173.86;130278;1288;22538;-82
2023/06/19 07:29:10;;;;;;;;;;;;;;;26.21;53.61;100174.90;130014;1291;25382;-82
2023/06/19 07:32:10;;;;;;;;;;;;;;;26.11;53.68;100176.99;130173;1290;23875;-82
2023/06/19 07:35:11;;;;;;;;;;;;;;;26.01;53.70;100180.13;130175;1294;23452;-83
2023/06/19 07:38:11;;;;;;;;;;;;;;;26.03;53.71;100178.11;130345;1295;24287;-80
2023/06/19 07:41:12;;;;;;;;;;;;;;;26.12;53.38;100179.06;130200;1288;24290;-80
2023/06/19 07:44:12;;;;;;;;;;;;;;;26.10;52.92;100179.50;130185;1289;25319;-81
2023/06/19 07:47:18;;;;;;;;;;;;;;;26.10;52.78;100179.93;130344;1289;22631;-84
2023/06/19 07:50:18;;;;;;;;;;;;;;;25.97;51.48;100179.78;130242;1292;22572;-82
2023/06/19 07:53:18;;;;;;;;;;;;;;;25.81;51.65;100185.96;130480;1294;22549;-79
2023/06/19 07:56:19;;;;;;;;;;;;;;;25.75;52.06;100185.88;130201;1289;23447;-81
2023/06/19 07:59:20;;;;;;;;;;;;;;;25.83;52.08;100184.34;130134;1295;22534;-84
2023/06/19 08:02:20;;;;;;;;;;;;;;;25.95;51.98;100183.54;130200;1286;23446;-82
2023/06/19 08:05:20;;;;;;;;;;;;;;;26.22;51.99;100183.44;130261;1295;22642;-85
2023/06/19 08:08:21;;;;;;;;;;;;;;;26.60;51.99;100182.25;130391;1289;25519;-83
2023/06/19 08:11:21;;;;;;;;;;;;;;;27.03;51.34;100177.60;130146;1289;22541;-83
2023/06/19 08:14:22;;;;;;;;;;;;;;;27.24;50.68;100173.14;130249;1294;22540;-81
2023/06/19 08:17:22;;;;;;;;;;;;;;;27.19;50.59;100168.46;130133;1289;24277;-81
2023/06/19 08:20:23;;;;;;;;;;;;;;;27.23;50.63;100164.74;130320;1289;22528;-81
2023/06/19 08:23:23;;;;;;;;;;;;;;;27.21;50.50;100168.73;130101;1289;22571;-82
2023/06/19 08:26:24;;;;;;;;;;;;;;;27.31;49.61;100169.96;130453;1292;22722;-81
2023/06/19 08:29:24;;;;;;;;;;;;;;;27.13;48.69;100166.66;130192;1292;22548;-85
2023/06/19 08:32:25;;;;;;;;;;;;;;;27.03;48.80;100165.26;130165;1298;25516;-84
2023/06/19 08:35:25;;;;;;;;;;;;;;;26.93;48.85;100159.33;130098;1292;22659;-81
2023/06/19 08:38:26;;;;;;;;;;;;;;;27.10;47.98;100159.36;130087;1292;22542;-81
2023/06/19 08:41:26;;;;;;;;;;;;;;;27.24;47.70;100159.30;130319;1291;24088;-85
2023/06/19 08:44:27;;;;;;;;;;;;;;;27.42;47.39;100158.05;130344;1292;22544;-86
2023/06/19 08:47:34;;;;;;;;;;;;;;;27.69;47.21;100152.55;130438;1294;22540;-84
2023/06/19 08:50:34;;;;;;;;;;;;;;;27.95;46.78;100157.40;130260;1298;22547;-82
2023/06/19 08:53:37;;;;;;;;;;;;;;;28.09;45.74;100155.20;130142;1298;22574;-82
2023/06/19 08:56:39;;;;;;;;;;;;;;;28.21;45.10;100156.33;130133;1298;22555;-86
2023/06/19 08:59:41;;;;;;;;;;;;;;;28.38;44.49;100150.71;130241;1298;25385;-86
2023/06/19 09:02:42;;;;;;;;;;;;;;;28.45;44.28;100149.52;130307;1292;22565;-85
2023/06/19 09:05:49;;;;;;;;;;;;;;;28.36;43.89;100148.47;130022;1298;22543;-84
2023/06/19 09:08:59;;;;;;;;;;;;;;;28.76;43.69;100147.58;130159;1298;25364;-84
2023/06/19 09:12:03;;;;;;;;;;;;;;;29.01;42.64;100141.98;130313;1295;25374;-82
2023/06/19 09:15:16;;;;;;;;;;;;;;;29.15;42.08;100140.39;130098;1299;22537;-84
2023/06/19 09:18:16;;;;;;;;;;;;;;;29.06;41.72;100143.48;130393;1294;24331;-84
2023/06/19 09:21:21;;;;;;;;;;;;;;;29.00;41.69;100143.84;130052;1301;24263;-84
2023/06/19 09:24:24;;;;;;;;;;;;;;;29.06;41.08;100140.95;130191;1290;22645;-84
2023/06/19 09:27:24;;;;;;;;;;;;;;;29.19;40.95;100137.34;130152;1299;22684;-84
2023/06/19 09:30:25;;;;;;;;;;;;;;;29.52;41.49;100139.80;130186;1298;24268;-84
2023/06/19 09:33:27;;;;;;;;;;;;;;;30.02;40.95;100132.64;130247;1298;23918;-85
2023/06/19 09:36:29;;;;;;;;;;;;;;;30.38;39.72;100133.86;130225;1298;25753;-85
2023/06/19 09:39:30;;;;;;;;;;;;;;;30.55;39.18;100129.48;130011;1298;22610;-83
2023/06/19 09:42:34;;;;;;;;;;;;;;;30.80;39.10;100126.77;130228;1298;22550;-82
2023/06/19 09:45:35;;;;;;;;;;;;;;;30.86;37.65;100128.64;130149;1294;22671;-84
2023/06/19 09:48:40;;;;;;;;;;;;;;;30.59;37.21;100128.86;130325;1298;22536;-85
2023/06/19 09:51:42;;;;;;;;;;;;;;;30.45;36.78;100127.68;130106;1292;23756;-83
2023/06/19 09:54:46;;;;;;;;;;;;;;;30.41;36.48;100129.17;130249;1292;24235;-87
2023/06/19 09:57:48;;;;;;;;;;;;;;;30.49;36.55;100126.03;130218;1292;23222;-83
2023/06/19 10:00:50;;;;;;;;;;;;;;;30.73;36.90;100121.46;130266;1294;22537;-84
2023/06/19 10:04:01;;;;;;;;;;;;;;;30.84;37.19;100125.33;130454;1292;24277;-82
2023/06/19 10:07:01;;;;;;;;;;;;;;;30.81;36.81;100122.75;130120;1297;22619;-86
2023/06/19 10:10:06;;;;;;;;;;;;;;;31.04;36.48;100116.73;130162;1289;23663;-85
2023/06/19 10:13:15;;;;;;;;;;;;;;;31.14;36.39;100109.48;130079;1292;22804;-85
2023/06/19 10:16:22;;;;;;;;;;;;;;;31.08;36.01;100118.21;130008;1295;23054;-82
2023/06/19 10:19:23;;;;;;;;;;;;;;;31.13;35.83;100117.30;130118;1298;25382;-83
2023/06/19 10:22:29;;;;;;;;;;;;;;;31.24;36.03;100112.91;130277;1298;25383;-85
2023/06/19 10:25:34;;;;;;;;;;;;;;;31.31;35.51;100111.72;130475;1295;24198;-82
2023/06/19 10:28:35;;;;;;;;;;;;;;;31.30;34.52;100109.33;130298;1292;25341;-83
2023/06/19 10:31:36;;;;;;;;;;;;;;;31.21;35.25;100110.25;130122;1295;22590;-85
2023/06/19 10:34:36;;;;;;;;;;;;;;;30.96;34.98;100105.23;130145;1292;22541;-82
2023/06/19 10:37:37;;;;;;;;;;;;;;;30.87;35.16;100103.05;130194;1295;25372;-85
2023/06/19 10:40:37;;;;;;;;;;;;;;;30.81;34.91;100106.53;129983;1295;23819;-84
2023/06/19 10:43:38;;;;;;;;;;;;;;;30.67;34.02;100101.34;130120;1295;22594;-87
2023/06/19 10:46:40;;;;;;;;;;;;;;;30.33;34.34;100099.36;130128;1292;22594;-85
2023/06/19 10:49:41;;;;;;;;;;;;;;;30.35;34.43;100094.62;130197;1295;22553;-86
2023/06/19 10:52:42;;;;;;;;;;;;;;;30.09;33.79;100096.55;129943;1298;22731;-86
2023/06/19 10:55:43;;;;;;;;;;;;;;;30.00;34.72;100094.49;129957;1292;24273;-85
2023/06/19 10:58:43;;;;;;;;;;;;;;;29.98;34.92;100095.73;129997;1299;22540;-81
2023/06/19 11:01:47;;;;;;;;;;;;;;;30.05;33.95;100097.80;130027;1292;22540;-86
2023/06/19 11:04:48;;;;;;;;;;;;;;;30.11;34.37;100094.27;129984;1299;25433;-84
2023/06/19 11:07:52;;;;;;;;;;;;;;;30.27;34.67;100094.58;129964;1297;22601;-83
2023/06/19 11:10:54;;;;;;;;;;;;;;;30.59;34.82;100095.40;129735;1298;22568;-83
2023/06/19 11:13:55;;;;;;;;;;;;;;;30.73;33.66;100098.89;130073;1292;22559;-86
2023/06/19 11:16:56;;;;;;;;;;;;;;;30.72;33.54;100096.77;130097;1297;25413;-82
2023/06/19 11:19:57;;;;;;;;;;;;;;;30.70;33.42;100095.01;129952;1298;24218;-84
2023/06/19 11:23:01;;;;;;;;;;;;;;;30.69;33.40;100096.83;129972;1295;23911;-84
2023/06/19 11:26:02;;;;;;;;;;;;;;;30.53;33.69;100090.70;129864;1291;22551;-82
2023/06/19 11:29:13;;;;;;;;;;;;;;;30.55;33.61;100092.24;129881;1297;25347;-85
2023/06/19 11:32:14;;;;;;;;;;;;;;;30.67;33.54;100095.27;130046;1298;22586;-85
2023/06/19 11:35:16;;;;;;;;;;;;;;;30.70;33.40;100088.04;129944;1298;22531;-82
2023/06/19 11:38:21;;;;;;;;;;;;;;;30.71;33.57;100086.16;130089;1298;25392;-82
2023/06/19 11:41:28;;;;;;;;;;;;;;;30.72;32.56;100083.08;130240;1292;22750;-83
2023/06/19 11:44:28;;;;;;;;;;;;;;;30.57;32.60;100081.27;130144;1298;22550;-85
2023/06/19 11:47:33;;;;;;;;;;;;;;;30.35;32.76;100080.05;130030;1294;22540;-84
2023/06/19 11:50:33;;;;;;;;;;;;;;;30.22;32.79;100079.54;130002;1293;22671;-83
2023/06/19 11:53:34;;;;;;;;;;;;;;;30.15;33.02;100079.64;130188;1296;22545;-85
2023/06/19 11:56:35;;;;;;;;;;;;;;;30.00;33.14;100084.30;130041;1296;22617;-82
2023/06/19 11:59:35;;;;;;;;;;;;;;;30.06;32.82;100082.69;130327;1292;22592;-80
2023/06/19 12:02:36;;;;;;;;;;;;;;;30.02;32.98;100086.36;129995;1293;22552;-84
2023/06/19 12:05:37;;;;;;;;;;;;;;;30.05;33.16;100083.64;129898;1295;25277;-84
2023/06/19 12:08:37;;;;;;;;;;;;;;;30.22;33.37;100082.67;130014;1293;22682;-82
2023/06/19 12:11:38;;;;;;;;;;;;;;;30.32;33.22;100074.79;130058;1295;22623;-85
2023/06/19 12:14:39;;;;;;;;;;;;;;;30.41;32.69;100075.52;129859;1293;24269;-80
2023/06/19 12:17:40;;;;;;;;;;;;;;;30.28;32.71;100076.65;130118;1298;23338;-85
2023/06/19 12:20:40;;;;;;;;;;;;;;;30.03;32.83;100073.09;129876;1292;24534;-85
2023/06/19 12:23:40;;;;;;;;;;;;;;;29.95;32.47;100070.23;129915;1299;22534;-82
2023/06/19 12:26:41;;;;;;;;;;;;;;;29.64;32.63;100066.73;130030;1301;22544;-85
2023/06/19 12:29:42;;;;;;;;;;;;;;;29.72;32.88;100068.69;130194;1291;22658;-86
2023/06/19 12:32:42;;;;;;;;;;;;;;;29.91;34.05;100069.30;130140;1298;22593;-86
2023/06/19 12:35:43;;;;;;;;;;;;;;;29.97;33.48;100072.55;130177;1294;27497;-86
2023/06/19 12:38:44;;;;;;;;;;;;;;;29.99;33.03;100069.52;130094;1298;24412;-82
2023/06/19 12:41:44;;;;;;;;;;;;;;;29.99;33.21;100068.14;130224;1294;22534;-82
2023/06/19 12:44:44;;;;;;;;;;;;;;;30.23;33.94;100060.70;130192;1292;24716;-88
2023/06/19 12:47:45;;;;;;;;;;;;;;;30.35;33.35;100062.98;130163;1298;25354;-81
2023/06/19 12:50:45;;;;;;;;;;;;;;;30.37;32.67;100061.40;130143;1292;22610;-82
2023/06/19 12:53:46;;;;;;;;;;;;;;;30.33;31.65;100058.64;130106;1289;22614;-85
2023/06/19 12:56:46;;;;;;;;;;;;;;;30.20;31.45;100054.65;129925;1290;22546;-83
2023/06/19 12:59:47;;;;;;;;;;;;;;;30.23;31.28;100050.92;130085;1290;25249;-85
2023/06/19 13:02:47;;;;;;;;;;;;;;;30.22;31.62;100048.64;130154;1291;25607;-83
2023/06/19 13:05:48;;;;;;;;;;;;;;;30.14;31.54;100047.27;130103;1293;22615;-85
2023/06/19 13:08:48;;;;;;;;;;;;;;;30.12;32.13;100044.39;130041;1290;22615;-84
2023/06/19 13:11:49;;;;;;;;;;;;;;;30.21;32.28;100043.52;130162;1292;22535;-85
2023/06/19 13:14:50;;;;;;;;;;;;;;;30.38;32.86;100043.15;130081;1291;24168;-81
2023/06/19 13:17:50;;;;;;;;;;;;;;;30.55;32.82;100044.07;130096;1292;23675;-84
2023/06/19 13:20:51;;;;;;;;;;;;;;;30.72;32.65;100044.80;130113;1289;23887;-84
2023/06/19 13:23:51;;;;;;;;;;;;;;;30.86;32.28;100047.28;130171;1295;23882;-82
2023/06/19 13:26:52;;;;;;;;;;;;;;;30.98;31.90;100043.92;130422;1297;23267;-85
2023/06/19 13:29:54;;;;;;;;;;;;;;;30.81;31.55;100039.78;130440;1291;22548;-83
2023/06/19 13:32:54;;;;;;;;;;;;;;;30.72;32.03;100038.77;130057;1291;23361;-83
2023/06/19 13:35:54;;;;;;;;;;;;;;;30.64;31.60;100043.41;130210;1292;25306;-84
2023/06/19 13:38:55;;;;;;;;;;;;;;;30.44;31.66;100039.63;130224;1292;22565;-86
2023/06/19 13:41:55;;;;;;;;;;;;;;;30.31;31.53;100040.43;130159;1299;25428;-82
2023/06/19 13:44:56;;;;;;;;;;;;;;;30.21;31.71;100034.86;129776;1294;22653;-84
2023/06/19 13:47:57;;;;;;;;;;;;;;;29.90;31.62;100034.79;130000;1295;24363;-83
2023/06/19 13:51:00;;;;;;;;;;;;;;;29.77;32.03;100037.89;130021;1292;22547;-88
2023/06/19 13:54:03;;;;;;;;;;;;;;;29.77;32.18;100037.78;129805;1291;25361;-88
2023/06/19 13:57:04;;;;;;;;;;;;;;;29.77;32.27;100035.42;130095;1297;22540;-82
2023/06/19 14:00:06;;;;;;;;;;;;;;;29.86;32.10;100035.52;130037;1291;22785;-83
2023/06/19 14:03:13;;;;;;;;;;;;;;;30.03;31.98;100035.14;130004;1295;22531;-82
2023/06/19 14:06:13;;;;;;;;;;;;;;;29.99;31.96;100034.66;130049;1291;25348;-82
2023/06/19 14:09:14;;;;;;;;;;;;;;;29.89;31.40;100032.40;130002;1291;22585;-85
2023/06/19 14:12:14;;;;;;;;;;;;;;;29.82;31.39;100031.38;129996;1291;23885;-84
2023/06/19 14:15:15;;;;;;;;;;;;;;;29.79;31.66;100030.64;129984;1291;22543;-83
2023/06/19 14:18:15;;;;;;;;;;;;;;;29.87;32.47;100029.30;129994;1292;23451;-83
2023/06/19 14:21:16;;;;;;;;;;;;;;;29.98;32.73;100022.96;130049;1290;22659;-81
2023/06/19 14:24:16;;;;;;;;;;;;;;;30.02;32.51;100023.45;130080;1291;22544;-85
2023/06/19 14:27:17;;;;;;;;;;;;;;;30.02;33.02;100022.13;130037;1292;24374;-83
2023/06/19 14:30:18;;;;;;;;;;;;;;;30.07;32.51;100022.86;129958;1291;22544;-84
2023/06/19 14:33:19;;;;;;;;;;;;;;;29.95;32.46;100026.57;130137;1292;22540;-83
2023/06/19 14:36:20;;;;;;;;;;;;;;;29.86;32.53;100024.85;130144;1291;24314;-82
2023/06/19 14:39:20;;;;;;;;;;;;;;;29.84;33.11;100029.15;130329;1291;22566;-85
2023/06/19 14:42:21;;;;;;;;;;;;;;;29.87;32.97;100030.29;130174;1298;22898;-84
2023/06/19 14:45:22;;;;;;;;;;;;;;;29.94;32.47;100030.95;130247;1294;25373;-84
2023/06/19 14:48:22;;;;;;;;;;;;;;;29.85;32.22;100035.03;130214;1292;22524;-84
2023/06/19 14:51:22;;;;;;;;;;;;;;;29.68;32.23;100036.82;130137;1295;26553;-86
2023/06/19 14:54:23;;;;;;;;;;;;;;;29.53;32.24;100032.53;130035;1289;22535;-84
2023/06/19 14:57:24;;;;;;;;;;;;;;;29.41;33.04;100035.59;130121;1294;25420;-85
2023/06/19 15:00:25;;;;;;;;;;;;;;;29.31;32.67;100034.64;130159;1283;24391;-82
2023/06/19 15:03:25;;;;;;;;;;;;;;;29.16;32.71;100038.41;130173;1291;22648;-83
2023/06/19 15:06:26;;;;;;;;;;;;;;;29.09;33.09;100035.45;130518;1291;22533;-83
2023/06/19 15:09:26;;;;;;;;;;;;;;;29.06;33.17;100037.40;130254;1298;25365;-84
2023/06/19 15:12:28;;;;;;;;;;;;;;;29.02;33.04;100037.70;129764;1298;25416;-83
2023/06/19 15:15:28;;;;;;;;;;;;;;;29.06;33.42;100039.80;130097;1290;24636;-82
2023/06/19 15:18:29;;;;;;;;;;;;;;;29.06;33.81;100035.65;130256;1298;22999;-83